Accueil
METAR-TAF:

METAR-TAF

Aéroports :

Aéroport international Jean-Lesage de Québec

Québec, Québec, Canada

latitude: 46-48N, longitude: 071-23W, altitude: 70 m

Observation

Le bulletin a été fait il y a 49 minutes, à 08:00 UTC
Vent 6 kt de sud-ouest
Température -15°C
Humidité 85%
Pression 1030 hPa
Visibilité: 24.1 km
Ciel clair

METAR: CYQB 230800Z 23006KT 15SM SKC M15/M17 A3042 RMK SLP308

Heure: 03:49 (08:49 UTC)

Prévision

Le bulletin a été fait il y a 3 heures et 10 minutes, à 05:39 UTC
Prévision valable du 23 à 06 UTC au 24 à 06 UTC
Vent 3 kt de direction variable
Visibilité: 10 km
Ciel clair
Evoluant progressivement
du 23 à 13 UTC au 23 à 15 UTC
Vent 8 kt de ouest/sud-ouest
A partir de 23 à 1600 UTC
Vent 10 kt de ouest/sud-ouest
Visibilité: 10 km
Nuages fragmentés à une hauteur de 4000 ft

TAF: CYQB 230539Z 2306/2406 VRB03KT P6SM SKC BECMG 2313/2315 24008KT FM231600 24010KT P6SM BKN040 RMK NXT FCST BY 231200Z

Observations et prévisions météorologiques de plus de 4000 aéroports (messages METAR et TAF).

Les stations disponibles sont représentées par des disques jaunes et rouges sur la carte.

Passer la souris dessus pour voir le nom de la station.

Cliquer dessus pour voir les observations et prévisions météorologiques.

Pour changer de carte: cliquez sur les boutons verts avec une croix noire pour zoomer, sur le bouton vert avec un tiret pour effectuer un zoom arrière, ou sur les flèches vertes pour les cartes adjacentes.


METAR-TAF: